Latest Weather Observations for Pearce

IDW60801

Issued at 8:03 am WST Thursday 21 November 2019 (issued every 10 minutes, with the page automatically refreshed every 10 minutes)

About weather observations | Map of weather stations | Latest weather observations for WA | Other Formats
Station Details ID: 009053 Name: PEARCE RAAF Lat: -31.67 Lon: 116.02 Height: 40.0 m
Data from the previous 72 hours. | See also: Recent months at Pearce
Date/Time
WST
Temp
°C
App
Temp
°C
Dew
Point
°C
Rel
Hum
%
Delta-T
°C
Wind Press
QNH
hPa
Press
MSL
hPa
Rain since
9am
mm
Dir  Spd
km/h
Gust
km/h
Spd
kts
Gust
kts
21/07:30am 15.4 12.9 5.0 50 4.9 SSE 7 11 4 6 1021.1 1021.0 0.0
21/07:00am 12.8 9.6 5.0 59 3.6 S 11 13 6 7 1021.1 1021.0 0.0
21/06:30am 10.1 9.5 7.3 83 1.3 CALM 0 7 0 4 1021.0 1020.9 0.0
21/06:00am 7.2 5.3 5.0 86 1.0 S 4 6 2 3 1021.0 1020.9 0.0
21/05:30am 7.1 5.5 4.6 84 1.1 S 2 6 1 3 1020.7 1020.5 0.0
21/05:00am 7.1 6.0 5.3 88 0.8 CALM 0 0 0 0 1020.3 1020.1 0.0
21/04:30am 6.3 5.0 4.1 86 0.9 CALM 0 0 0 0 1019.9 1019.7 0.0
21/04:00am 7.3 5.9 3.7 78 1.5 CALM 0 0 0 0 1019.7 1019.5 0.0
21/03:30am 9.4 7.5 6.7 83 1.3 S 6 7 3 4 1019.6 1019.4 0.0
21/03:00am 7.9 6.9 5.4 84 1.1 CALM 0 0 0 0 1019.5 1019.3 0.0
21/02:30am 7.6 6.2 3.6 76 1.7 CALM 0 0 0 0 1019.0 1018.8 0.0
21/02:00am 9.3 7.9 5.7 78 1.6 S 2 6 1 3 1019.0 1018.8 0.0
21/01:30am 10.1 8.8 6.1 76 1.9 S 2 6 1 3 1019.0 1018.8 0.0
21/01:00am 11.8 9.8 6.9 72 2.3 SSE 7 9 4 5 1019.0 1018.8 0.0
21/12:30am 11.8 9.7 6.7 71 2.4 SSE 7 9 4 5 1019.2 1019.0 0.0
21/12:00am 12.2 10.1 6.7 69 2.6 SSW 7 11 4 6 1019.4 1019.2 0.0
 
Date/Time
WST
Temp
°C
App
Temp
°C
Dew
Point
°C
Rel
Hum
%
Delta-T
°C
Wind Press
QNH
hPa
Press
MSL
hPa
Rain since
9am
mm
Dir  Spd
km/h
Gust
km/h
Spd
kts
Gust
kts
20/11:30pm 12.1 9.5 6.2 67 2.8 S 9 11 5 6 1019.5 1019.3 0.0
20/11:00pm 12.9 10.1 6.9 67 2.9 SSE 11 15 6 8 1019.8 1019.6 0.0
20/10:30pm 12.9 9.7 6.7 66 3.0 S 13 17 7 9 1020.2 1020.0 0.0
20/10:00pm 13.7 10.5 6.8 63 3.3 S 13 19 7 10 1020.1 1019.9 0.0
20/09:30pm 14.0 10.0 6.6 61 3.6 S 17 20 9 11 1020.0 1019.8 0.0
20/09:00pm 14.7 10.2 6.8 59 3.8 S 20 30 11 16 1019.7 1019.5 0.0
20/08:30pm 15.1 11.2 7.2 59 3.9 SSW 17 24 9 13 1019.5 1019.3 0.0
20/08:00pm 15.0 11.3 6.3 56 4.2 SSW 15 20 8 11 1019.3 1019.1 0.0
20/07:30pm 15.3 11.1 5.8 53 4.6 SSW 17 20 9 11 1019.3 1019.1 0.0
20/07:00pm 16.0 10.9 5.9 51 4.9 SW 22 28 12 15 1019.1 1018.9 0.0
20/06:30pm 16.8 12.0 5.7 48 5.4 SW 20 26 11 14 1018.8 1018.6 0.0
20/06:00pm 18.0 12.0 5.2 43 6.2 SW 26 35 14 19 1018.3 1018.1 0.0
20/05:30pm 19.1 12.4 3.7 36 7.3 SW 28 35 15 19 1017.9 1017.7 0.0
20/05:00pm 19.6 12.9 3.7 35 7.5 SW 28 37 15 20 1017.5 1017.3 0.0
20/04:30pm 19.8 13.5 3.5 34 7.7 SW 26 35 14 19 1017.2 1017.0 0.0
20/04:00pm 20.1 13.8 1.5 29 8.5 SW 24 37 13 20 1017.0 1016.8 0.0
20/03:30pm 20.4 13.8 1.8 29 8.6 SW 26 33 14 18 1017.0 1016.8 0.0
20/03:00pm 20.5 13.4 1.4 28 8.7 SSW 28 43 15 23 1017.0 1016.8 0.0
20/02:30pm 20.9 13.6 2.7 30 8.6 SW 30 44 16 24 1016.9 1016.7 0.0
20/02:00pm 20.6 13.2 3.8 33 8.0 SW 32 46 17 25 1016.8 1016.6 0.0
20/01:30pm 21.5 14.0 3.2 30 8.7 SSW 32 50 17 27 1016.8 1016.6 0.0
20/01:24pm 21.2 13.4 3.0 30 8.6 SSW 33 50 18 27 1016.7 1016.5 0.0
20/01:00pm 20.3 12.8 3.5 33 8.0 SW 32 43 17 23 1017.0 1016.8 0.0
20/12:30pm 19.8 11.5 4.3 36 7.5 SW 37 52 20 28 1017.0 1016.8 0.0
20/12:18pm 19.5 11.3 2.8 33 7.8 SW 35 56 19 30 1016.8 1016.6 0.0
20/12:00pm 20.5 12.7 2.8 31 8.3 SW 33 46 18 25 1016.7 1016.5 0.0
20/11:38am 20.2 11.5 2.1 30 8.4 SW 37 50 20 27 1016.5 1016.3 0.0
20/11:30am 20.7 11.6 2.0 29 8.7 SSW 39 54 21 29 1016.7 1016.5 0.0
20/11:04am 19.7 11.1 2.6 32 8.0 SW 37 59 20 32 1016.4 1016.2 0.0
20/11:00am 19.8 10.7 1.7 30 8.3 SW 39 52 21 28 1016.6 1016.4 0.0
20/10:30am 20.2 10.8 2.5 31 8.2 SW 41 54 22 29 1016.2 1016.0 0.0
20/10:00am 19.3 11.1 5.0 39 6.9 SSW 37 52 20 28 1016.1 1015.9 0.0
20/09:38am 19.6 11.7 6.0 41 6.8 SSW 37 56 20 30 1015.7 1015.5 0.0
20/09:30am 17.5 8.8 6.1 47 5.6 SSW 41 56 22 30 1015.8 1015.6 0.0
20/09:00am 18.3 9.2 5.8 44 6.1 SW 43 57 23 31 1015.9 1015.7 0.0
20/08:47am 18.9 10.6 7.7 48 5.7 SSW 41 54 22 29 1015.8 1015.6 0.0
20/08:36am 18.8 10.2 6.3 44 6.2 SW 41 59 22 32 1015.6 1015.4 0.0
20/08:30am 18.5 10.3 6.4 45 6.0 SW 39 52 21 28 1015.5 1015.3 0.0
20/08:02am 19.4 11.7 7.2 45 6.2 SSW 37 56 20 30 1014.8 1014.7 0.0
20/08:00am 19.6 12.1 6.4 42 6.6 SW 35 48 19 26 1014.8 1014.7 0.0
20/07:30am 18.0 10.4 7.4 50 5.4 SW 37 54 20 29 1014.5 1014.4 0.0
20/07:00am 17.4 8.7 8.5 56 4.6 SW 44 63 24 34 1013.8 1013.7 0.0
20/06:53am 18.6 11.0 9.1 54 5.0 SW 39 57 21 31 1013.5 1013.4 0.0
20/06:30am 17.6 10.8 7.9 53 4.9 SW 33 44 18 24 1013.2 1013.1 0.0
20/06:03am 17.2 11.4 9.6 61 4.0 SW 30 50 16 27 1012.8 1012.7 0.0
20/06:00am 17.3 12.1 10.2 63 3.8 SW 28 43 15 23 1012.8 1012.7 0.0
20/05:30am 16.4 13.4 10.7 69 3.0 WSW 17 24 9 13 1012.5 1012.4 0.0
20/05:05am 17.3 12.0 9.7 61 4.0 WSW 28 46 15 25 1012.3 1012.2 0.0
20/05:00am 17.1 13.2 9.5 61 4.0 WSW 20 33 11 18 1012.1 1012.0 0.0
20/04:30am 16.6 10.8 9.5 63 3.7 WSW 30 41 16 22 1011.8 1011.7 0.0
20/04:18am 16.2 11.1 10.7 70 2.9 WSW 28 50 15 27 1011.9 1011.8 0.0
20/04:00am 17.4 13.0 9.1 58 4.3 WSW 22 32 12 17 1011.5 1011.4 0.0
20/03:30am 17.7 13.6 8.0 53 4.9 SW 19 24 10 13 1011.2 1011.1 0.0
20/03:00am 17.1 14.2 9.8 62 3.8 SW 15 22 8 12 1011.0 1010.9 0.0
20/02:30am 16.0 13.9 9.9 67 3.2 WNW 11 22 6 12 1011.2 1011.1 0.0
20/02:00am 15.7 13.8 9.1 65 3.4 W 9 9 5 5 1011.0 1010.9 0.0
20/01:30am 15.7 13.2 9.6 67 3.2 SW 13 17 7 9 1011.3 1011.2 0.0
20/01:00am 16.1 14.9 10.2 68 3.1 WSW 7 11 4 6 1011.4 1011.3 0.0
20/12:30am 15.7 14.4 9.8 68 3.1 W 7 7 4 4 1011.5 1011.4 0.0
20/12:00am 16.3 15.3 10.2 67 3.2 WSW 6 7 3 4 1011.7 1011.6 0.0
 
Date/Time
WST
Temp
°C
App
Temp
°C
Dew
Point
°C
Rel
Hum
%
Delta-T
°C
Wind Press
QNH
hPa
Press
MSL
hPa
Rain since
9am
mm
Dir  Spd
km/h
Gust
km/h
Spd
kts
Gust
kts
19/11:30pm 16.3 14.7 10.2 67 3.2 SW 9 13 5 7 1011.7 1011.6 0.0
19/11:00pm 15.9 13.4 9.6 66 3.3 SW 13 17 7 9 1011.9 1011.8 0.0
19/10:30pm 16.4 13.5 9.6 64 3.6 SW 15 19 8 10 1012.0 1011.9 0.0
19/10:00pm 16.7 12.9 9.9 64 3.6 SSW 20 24 11 13 1012.1 1012.0 0.0
19/09:30pm 16.9 13.7 9.8 63 3.7 SW 17 22 9 12 1012.0 1011.9 0.0
19/09:00pm 16.8 14.2 10.6 67 3.3 SW 15 22 8 12 1011.9 1011.8 0.0
19/08:30pm 16.7 14.2 11.2 70 3.0 SW 15 19 8 10 1011.6 1011.5 0.0
19/08:00pm 16.4 14.3 11.1 71 2.9 SW 13 19 7 10 1011.4 1011.3 0.0
19/07:30pm 16.8 14.3 10.9 68 3.2 SW 15 17 8 9 1011.0 1010.9 0.0
19/07:00pm 17.6 14.8 11.4 67 3.4 SW 17 20 9 11 1010.9 1010.8 0.0
19/06:30pm 18.7 14.6 11.5 63 4.0 SW 24 33 13 18 1010.7 1010.6 0.0
19/06:00pm 20.1 16.6 12.1 60 4.5 SW 22 28 12 15 1010.5 1010.4 0.0
19/05:30pm 20.2 14.7 11.9 59 4.6 SW 32 43 17 23 1010.4 1010.3 0.0
19/05:00pm 21.1 16.4 12.0 56 5.1 SW 28 35 15 19 1010.1 1010.0 0.0
19/04:30pm 22.0 17.8 13.4 58 5.0 SW 28 39 15 21 1010.1 1010.0 0.0
19/04:00pm 21.5 17.2 13.2 59 4.8 SSW 28 37 15 20 1010.0 1009.9 0.0
19/03:30pm 21.5 16.4 13.2 59 4.8 SW 32 41 17 22 1010.0 1009.9 0.0
19/03:00pm 22.8 18.1 14.4 59 5.0 WSW 32 41 17 22 1009.9 1009.8 0.0
19/02:30pm 24.7 20.1 14.5 53 6.1 WSW 32 39 17 21 1009.3 1009.2 0.0
19/02:21pm 24.9 20.2 14.4 52 6.2 WSW 32 41 17 22 1009.5 1009.4 0.0
19/02:00pm 24.5 20.6 14.3 53 6.1 SW 28 39 15 21 1009.2 1009.1 0.0
19/01:30pm 25.2 21.2 14.0 49 6.6 SW 28 41 15 22 1009.2 1009.1 0.0
19/01:00pm 23.7 19.8 13.3 52 6.0 SW 26 35 14 19 1009.3 1009.2 0.0
19/12:30pm 25.1 21.0 12.7 46 7.2 WSW 26 37 14 20 1009.5 1009.4 0.0
19/12:00pm 26.7 23.0 13.8 45 7.7 SW 26 37 14 20 1009.5 1009.4 0.0
19/11:30am 27.1 23.3 12.3 39 8.6 WSW 24 33 13 18 1009.6 1009.5 0.0
19/11:00am 25.0 20.3 10.5 40 8.1 WSW 26 35 14 19 1009.7 1009.6 0.0
19/10:30am 25.1 20.8 10.6 40 8.1 SW 24 33 13 18 1009.7 1009.6 0.0
19/10:00am 25.4 22.9 12.3 44 7.6 WSW 17 28 9 15 1009.6 1009.5 0.0
19/09:30am 24.3 21.8 12.3 47 6.9 WSW 17 26 9 14 1009.7 1009.6 0.0
19/09:00am 23.3 22.3 13.5 54 5.7 W 11 19 6 10 1009.7 1009.6 0.0
19/08:30am 21.9 22.0 13.8 60 4.7 N 6 9 3 5 1009.7 1009.6 0.0
19/08:00am 20.1 21.0 16.1 78 2.4 NW 6 9 3 5 1009.8 1009.7 0.0
19/07:30am 17.5 18.6 16.7 95 0.5 NW 6 7 3 4 1009.7 1009.6 0.0
19/07:00am 17.2 19.4 16.4 95 0.5 CALM 0 0 0 0 1009.9 1009.8 0.0
19/06:30am 16.6 17.2 15.8 95 0.5 NW 7 9 4 5 1010.0 1009.9 0.0
19/06:00am 16.5 17.2 15.5 94 0.6 NW 6 7 3 4 1009.5 1009.4 0.0
19/05:30am 16.6 17.3 15.6 94 0.6 NNE 6 7 3 4 1009.4 1009.3 0.0
19/05:00am 16.7 18.2 15.6 93 0.6 NNE 2 6 1 3 1009.3 1009.2 0.0
19/04:49am 16.8 18.3 15.7 93 0.6 NNE 2 6 1 3 1009.4 1009.3 0.0
19/04:30am 16.3 16.9 15.2 93 0.6 NNE 6 9 3 5 1009.3 1009.2 0.0
19/04:08am 14.8 14.6 13.5 92 0.7 NNW 7 9 4 5 1009.4 1009.3 0.0
19/04:00am 14.6 13.9 13.1 91 0.8 NNW 9 11 5 6 1009.4 1009.3 0.0
19/03:30am 15.3 15.3 13.5 89 1.0 NW 6 7 3 4 1009.1 1009.0 0.0
19/03:00am 17.6 18.5 16.1 91 0.9 NW 6 7 3 4 1009.1 1009.0 0.0
19/02:30am 16.4 16.7 14.9 91 0.9 NW 7 9 4 5 1009.3 1009.2 0.0
19/02:00am 15.4 15.1 13.4 88 1.1 NNW 7 9 4 5 1009.3 1009.2 0.0
19/01:30am 17.0 17.1 14.5 85 1.4 NNW 7 9 4 5 1009.6 1009.5 0.0
19/01:00am 18.7 19.5 16.3 86 1.4 ENE 7 11 4 6 1009.8 1009.7 0.0
19/12:30am 17.4 17.7 14.5 83 1.7 NNW 6 9 3 5 1009.8 1009.7 0.0
19/12:00am 18.8 20.6 15.5 81 1.9 CALM 0 0 0 0 1010.3 1010.2 0.0
 
Date/Time
WST
Temp
°C
App
Temp
°C
Dew
Point
°C
Rel
Hum
%
Delta-T
°C
Wind Press
QNH
hPa
Press
MSL
hPa
Rain since
9am
mm
Dir  Spd
km/h
Gust
km/h
Spd
kts
Gust
kts
18/11:30pm 18.8 19.3 15.1 79 2.2 N 6 7 3 4 1010.6 1010.5 0.0
18/11:00pm 19.9 20.5 15.3 75 2.7 N 6 7 3 4 1010.9 1010.8 0.0
18/10:30pm 19.8 20.2 14.8 73 2.9 NNW 6 7 3 4 1011.4 1011.3 0.0
18/10:00pm 20.5 20.9 14.8 70 3.4 NNW 6 7 3 4 1011.8 1011.7 0.0
18/09:30pm 20.9 21.8 15.0 69 3.5 WSW 4 7 2 4 1012.0 1011.9 0.0
18/09:00pm 21.2 21.4 14.1 64 4.1 WSW 6 9 3 5 1012.2 1012.1 0.0
18/08:30pm 21.9 22.0 14.0 61 4.6 WSW 6 9 3 5 1012.2 1012.1 0.0
18/08:00pm 22.4 21.9 13.7 58 5.1 SW 9 13 5 7 1012.2 1012.1 0.0
18/07:30pm 23.3 21.3 14.0 56 5.5 SW 17 20 9 11 1011.9 1011.8 0.0
18/07:00pm 23.8 20.8 13.6 52 6.0 SW 22 30 12 16 1011.8 1011.7 0.0
18/06:30pm 24.9 22.2 12.8 47 7.0 SSW 19 28 10 15 1011.8 1011.7 0.0
18/06:00pm 26.4 22.6 11.3 39 8.6 S 22 28 12 15 1011.5 1011.4 0.0
18/05:30pm 27.7 23.9 11.3 36 9.4 S 22 30 12 16 1011.5 1011.4 0.0
18/05:00pm 29.0 23.5 10.6 32 10.5 S 30 39 16 21 1011.6 1011.5 0.0
18/04:30pm 29.6 25.7 12.1 34 10.2 SSW 24 33 13 18 1011.6 1011.5 0.0
18/04:00pm 30.1 25.1 12.1 33 10.6 SSW 30 35 16 19 1011.7 1011.6 0.0
18/03:30pm 31.7 27.4 12.0 30 11.6 SSW 26 32 14 17 1011.7 1011.6 0.0
18/03:00pm 32.9 28.5 14.0 32 11.5 SW 30 39 16 21 1011.6 1011.5 0.0
18/02:30pm 33.0 28.8 13.6 31 11.8 SW 28 35 15 19 1011.8 1011.7 0.0
18/02:00pm 33.3 28.7 13.4 30 12.1 SW 30 37 16 20 1011.9 1011.8 0.0
18/01:30pm 34.9 30.8 7.9 19 15.1 SSW 19 26 10 14 1012.2 1012.1 0.0
18/01:00pm 35.4 32.0 9.0 20 15.1 SSW 17 28 9 15 1012.5 1012.4 0.0
18/12:30pm 34.7 31.9 8.4 20 14.8 S 13 22 7 12 1013.0 1012.9 0.0
18/12:00pm 34.2 31.7 8.0 20 14.7 SSW 11 17 6 9 1013.3 1013.2 0.0
18/11:30am 32.8 30.2 7.6 21 13.9 SSE 11 24 6 13 1013.7 1013.6 0.0
18/11:00am 31.9 28.7 6.9 21 13.6 SE 13 20 7 11 1014.4 1014.3 0.0
18/10:30am 32.0 29.7 8.9 24 13.0 SE 11 20 6 11 1015.1 1014.9 0.0
18/10:00am 30.2 26.6 6.8 23 12.6 ESE 15 22 8 12 1015.2 1015.0 0.0
18/09:30am 29.0 25.6 7.6 26 11.6 SE 15 20 8 11 1015.7 1015.5 0.0
18/09:00am 27.9 24.1 7.7 28 10.9 ESE 17 22 9 12 1016.0 1015.8 0.0
18/08:30am 26.8 23.9 8.3 31 10.0 SE 13 20 7 11 1016.5 1016.3 0.0

Other formats

Comma delimited format used in spreadsheet applications
http://www.bom.gov.au/fwo/IDW60801/IDW60801.94612.axf

JavaScript Object Notation format (JSON) in row-major order
http://www.bom.gov.au/fwo/IDW60801/IDW60801.94612.json

Data quality

Most of these data are generated automatically and are frequently updated. Quality checks on data are not normally performed. It is possible for incorrect values to appear. Refer to information at About Latest Weather Observations and please check the disclaimer before using these data.